sensor_id;sensor_type;location;lat;lon;timestamp;P1;durP1;ratioP1;P2;durP2;ratioP2
37715;SDS011;23562;50.540;12.504;2024-01-30T00:01:08;3.58;;;2.22;;
37715;SDS011;23562;50.540;12.504;2024-01-30T00:03:33;6.70;;;2.27;;
37715;SDS011;23562;50.540;12.504;2024-01-30T00:05:59;6.30;;;2.30;;
37715;SDS011;23562;50.540;12.504;2024-01-30T00:08:24;4.60;;;2.00;;
37715;SDS011;23562;50.540;12.504;2024-01-30T00:10:49;3.78;;;1.90;;
37715;SDS011;23562;50.540;12.504;2024-01-30T00:13:14;4.67;;;2.07;;
37715;SDS011;23562;50.540;12.504;2024-01-30T00:15:41;4.05;;;2.22;;
37715;SDS011;23562;50.540;12.504;2024-01-30T00:18:06;4.35;;;2.20;;
37715;SDS011;23562;50.540;12.504;2024-01-30T00:20:32;3.63;;;2.00;;
37715;SDS011;23562;50.540;12.504;2024-01-30T00:22:57;4.05;;;1.90;;
37715;SDS011;23562;50.540;12.504;2024-01-30T00:25:22;6.15;;;2.28;;
37715;SDS011;23562;50.540;12.504;2024-01-30T00:27:47;3.88;;;2.10;;
37715;SDS011;23562;50.540;12.504;2024-01-30T00:30:12;6.85;;;2.20;;
37715;SDS011;23562;50.540;12.504;2024-01-30T00:32:37;3.92;;;2.00;;
37715;SDS011;23562;50.540;12.504;2024-01-30T00:35:02;2.50;;;1.90;;
37715;SDS011;23562;50.540;12.504;2024-01-30T00:37:28;3.70;;;2.13;;
37715;SDS011;23562;50.540;12.504;2024-01-30T00:39:53;5.15;;;2.15;;
37715;SDS011;23562;50.540;12.504;2024-01-30T00:42:18;4.15;;;2.00;;
37715;SDS011;23562;50.540;12.504;2024-01-30T00:44:44;3.33;;;1.88;;
37715;SDS011;23562;50.540;12.504;2024-01-30T00:47:09;3.90;;;1.90;;
37715;SDS011;23562;50.540;12.504;2024-01-30T00:49:34;3.47;;;2.00;;
37715;SDS011;23562;50.540;12.504;2024-01-30T00:52:00;5.97;;;2.25;;
37715;SDS011;23562;50.540;12.504;2024-01-30T00:54:25;3.60;;;2.20;;
37715;SDS011;23562;50.540;12.504;2024-01-30T00:56:50;3.88;;;2.17;;
37715;SDS011;23562;50.540;12.504;2024-01-30T00:59:15;3.28;;;2.00;;
37715;SDS011;23562;50.540;12.504;2024-01-30T01:01:40;4.60;;;2.20;;
37715;SDS011;23562;50.540;12.504;2024-01-30T01:04:05;5.70;;;2.30;;
37715;SDS011;23562;50.540;12.504;2024-01-30T01:06:32;4.30;;;2.20;;
37715;SDS011;23562;50.540;12.504;2024-01-30T01:08:57;4.93;;;2.10;;
37715;SDS011;23562;50.540;12.504;2024-01-30T01:11:22;4.53;;;2.35;;
37715;SDS011;23562;50.540;12.504;2024-01-30T01:13:47;4.20;;;2.33;;
37715;SDS011;23562;50.540;12.504;2024-01-30T01:16:12;3.78;;;2.42;;
37715;SDS011;23562;50.540;12.504;2024-01-30T01:18:38;4.00;;;2.20;;
37715;SDS011;23562;50.540;12.504;2024-01-30T01:21:03;5.32;;;2.30;;
37715;SDS011;23562;50.540;12.504;2024-01-30T01:23:28;5.63;;;2.47;;
37715;SDS011;23562;50.540;12.504;2024-01-30T01:25:53;4.82;;;2.45;;
37715;SDS011;23562;50.540;12.504;2024-01-30T01:28:18;4.15;;;2.13;;
37715;SDS011;23562;50.540;12.504;2024-01-30T01:30:44;4.07;;;2.20;;
37715;SDS011;23562;50.540;12.504;2024-01-30T01:33:09;5.10;;;2.40;;
37715;SDS011;23562;50.540;12.504;2024-01-30T01:35:35;3.63;;;2.13;;
37715;SDS011;23562;50.540;12.504;2024-01-30T01:38:00;4.93;;;2.55;;
37715;SDS011;23562;50.540;12.504;2024-01-30T01:40:26;4.50;;;2.20;;
37715;SDS011;23562;50.540;12.504;2024-01-30T01:42:52;4.13;;;2.20;;
37715;SDS011;23562;50.540;12.504;2024-01-30T01:45:17;5.10;;;2.30;;
37715;SDS011;23562;50.540;12.504;2024-01-30T01:47:42;5.93;;;2.30;;
37715;SDS011;23562;50.540;12.504;2024-01-30T01:50:10;4.38;;;2.05;;
37715;SDS011;23562;50.540;12.504;2024-01-30T01:52:35;4.90;;;2.33;;
37715;SDS011;23562;50.540;12.504;2024-01-30T01:55:01;5.00;;;2.13;;
37715;SDS011;23562;50.540;12.504;2024-01-30T01:57:26;3.83;;;2.38;;
37715;SDS011;23562;50.540;12.504;2024-01-30T01:59:51;4.30;;;2.08;;
37715;SDS011;23562;50.540;12.504;2024-01-30T02:02:17;3.47;;;2.13;;
37715;SDS011;23562;50.540;12.504;2024-01-30T02:04:42;3.88;;;2.22;;
37715;SDS011;23562;50.540;12.504;2024-01-30T02:07:07;5.35;;;2.58;;
37715;SDS011;23562;50.540;12.504;2024-01-30T02:09:33;4.38;;;2.08;;
37715;SDS011;23562;50.540;12.504;2024-01-30T02:11:58;4.53;;;2.10;;
37715;SDS011;23562;50.540;12.504;2024-01-30T02:14:23;3.97;;;1.92;;
37715;SDS011;23562;50.540;12.504;2024-01-30T02:16:48;4.45;;;2.30;;
37715;SDS011;23562;50.540;12.504;2024-01-30T02:19:13;4.77;;;2.40;;
37715;SDS011;23562;50.540;12.504;2024-01-30T02:21:38;4.85;;;2.40;;
37715;SDS011;23562;50.540;12.504;2024-01-30T02:24:04;5.25;;;2.50;;
37715;SDS011;23562;50.540;12.504;2024-01-30T02:26:29;4.32;;;2.25;;
37715;SDS011;23562;50.540;12.504;2024-01-30T02:28:54;4.80;;;2.10;;
37715;SDS011;23562;50.540;12.504;2024-01-30T02:31:20;4.20;;;2.08;;
37715;SDS011;23562;50.540;12.504;2024-01-30T02:33:45;6.15;;;2.40;;
37715;SDS011;23562;50.540;12.504;2024-01-30T02:36:10;11.37;;;2.50;;
37715;SDS011;23562;50.540;12.504;2024-01-30T02:38:35;4.35;;;2.22;;
37715;SDS011;23562;50.540;12.504;2024-01-30T02:41:00;4.57;;;2.20;;
37715;SDS011;23562;50.540;12.504;2024-01-30T02:43:25;4.07;;;2.47;;
37715;SDS011;23562;50.540;12.504;2024-01-30T02:45:50;3.73;;;2.00;;
37715;SDS011;23562;50.540;12.504;2024-01-30T02:48:15;4.00;;;2.03;;
37715;SDS011;23562;50.540;12.504;2024-01-30T02:50:41;5.27;;;2.60;;
37715;SDS011;23562;50.540;12.504;2024-01-30T02:53:06;4.00;;;2.27;;
37715;SDS011;23562;50.540;12.504;2024-01-30T02:55:31;5.45;;;2.40;;
37715;SDS011;23562;50.540;12.504;2024-01-30T02:57:56;7.10;;;2.40;;
37715;SDS011;23562;50.540;12.504;2024-01-30T03:00:21;3.85;;;2.05;;
37715;SDS011;23562;50.540;12.504;2024-01-30T03:02:46;5.38;;;2.10;;
37715;SDS011;23562;50.540;12.504;2024-01-30T03:05:12;4.93;;;2.15;;
37715;SDS011;23562;50.540;12.504;2024-01-30T03:07:37;4.03;;;2.40;;
37715;SDS011;23562;50.540;12.504;2024-01-30T03:10:03;4.90;;;2.50;;
37715;SDS011;23562;50.540;12.504;2024-01-30T03:12:28;3.67;;;2.28;;
37715;SDS011;23562;50.540;12.504;2024-01-30T03:14:53;3.47;;;2.15;;
37715;SDS011;23562;50.540;12.504;2024-01-30T03:17:19;3.77;;;2.37;;
37715;SDS011;23562;50.540;12.504;2024-01-30T03:19:44;4.55;;;2.15;;
37715;SDS011;23562;50.540;12.504;2024-01-30T03:22:09;5.78;;;2.30;;
37715;SDS011;23562;50.540;12.504;2024-01-30T03:24:34;4.20;;;2.22;;
37715;SDS011;23562;50.540;12.504;2024-01-30T03:26:59;6.50;;;2.33;;
37715;SDS011;23562;50.540;12.504;2024-01-30T03:29:24;6.43;;;2.25;;
37715;SDS011;23562;50.540;12.504;2024-01-30T03:31:49;4.15;;;1.95;;
37715;SDS011;23562;50.540;12.504;2024-01-30T03:34:15;5.88;;;2.30;;
37715;SDS011;23562;50.540;12.504;2024-01-30T03:36:40;4.50;;;2.22;;
37715;SDS011;23562;50.540;12.504;2024-01-30T03:39:05;3.80;;;2.10;;
37715;SDS011;23562;50.540;12.504;2024-01-30T03:41:31;5.93;;;2.40;;
37715;SDS011;23562;50.540;12.504;2024-01-30T03:43:56;6.10;;;2.35;;
37715;SDS011;23562;50.540;12.504;2024-01-30T03:46:21;5.90;;;2.40;;
37715;SDS011;23562;50.540;12.504;2024-01-30T03:48:46;5.60;;;2.20;;
37715;SDS011;23562;50.540;12.504;2024-01-30T03:51:11;3.23;;;1.93;;
37715;SDS011;23562;50.540;12.504;2024-01-30T03:53:41;3.33;;;2.22;;
37715;SDS011;23562;50.540;12.504;2024-01-30T03:56:06;7.25;;;2.47;;
37715;SDS011;23562;50.540;12.504;2024-01-30T03:58:32;6.13;;;2.40;;
37715;SDS011;23562;50.540;12.504;2024-01-30T04:00:57;6.32;;;2.35;;
37715;SDS011;23562;50.540;12.504;2024-01-30T04:03:22;3.85;;;2.25;;
37715;SDS011;23562;50.540;12.504;2024-01-30T04:05:47;3.40;;;1.95;;
37715;SDS011;23562;50.540;12.504;2024-01-30T04:08:12;4.60;;;2.13;;
37715;SDS011;23562;50.540;12.504;2024-01-30T04:10:37;3.38;;;2.20;;
37715;SDS011;23562;50.540;12.504;2024-01-30T04:13:02;3.20;;;2.10;;
37715;SDS011;23562;50.540;12.504;2024-01-30T04:15:27;6.50;;;2.80;;
37715;SDS011;23562;50.540;12.504;2024-01-30T04:17:56;3.95;;;2.00;;
37715;SDS011;23562;50.540;12.504;2024-01-30T04:20:21;4.63;;;2.40;;
37715;SDS011;23562;50.540;12.504;2024-01-30T04:22:47;3.03;;;2.10;;
37715;SDS011;23562;50.540;12.504;2024-01-30T04:25:12;6.00;;;2.60;;
37715;SDS011;23562;50.540;12.504;2024-01-30T04:27:38;5.30;;;2.35;;
37715;SDS011;23562;50.540;12.504;2024-01-30T04:30:03;4.40;;;2.20;;
37715;SDS011;23562;50.540;12.504;2024-01-30T04:32:28;3.13;;;2.30;;
37715;SDS011;23562;50.540;12.504;2024-01-30T04:34:54;3.43;;;2.20;;
37715;SDS011;23562;50.540;12.504;2024-01-30T04:37:19;5.30;;;2.47;;
37715;SDS011;23562;50.540;12.504;2024-01-30T04:39:44;5.90;;;2.83;;
37715;SDS011;23562;50.540;12.504;2024-01-30T04:42:09;5.57;;;2.30;;
37715;SDS011;23562;50.540;12.504;2024-01-30T04:44:34;5.30;;;2.27;;
37715;SDS011;23562;50.540;12.504;2024-01-30T04:47:00;5.83;;;2.60;;
37715;SDS011;23562;50.540;12.504;2024-01-30T04:49:26;4.03;;;2.17;;
37715;SDS011;23562;50.540;12.504;2024-01-30T04:51:51;3.83;;;2.15;;
37715;SDS011;23562;50.540;12.504;2024-01-30T04:54:16;3.53;;;2.10;;
37715;SDS011;23562;50.540;12.504;2024-01-30T04:56:41;4.03;;;1.90;;
37715;SDS011;23562;50.540;12.504;2024-01-30T04:59:07;3.60;;;2.10;;
37715;SDS011;23562;50.540;12.504;2024-01-30T05:01:33;2.85;;;2.05;;
37715;SDS011;23562;50.540;12.504;2024-01-30T05:03:58;3.83;;;2.13;;
37715;SDS011;23562;50.540;12.504;2024-01-30T05:06:24;5.35;;;2.40;;
37715;SDS011;23562;50.540;12.504;2024-01-30T05:08:49;5.10;;;2.25;;
37715;SDS011;23562;50.540;12.504;2024-01-30T05:11:14;3.83;;;2.08;;
37715;SDS011;23562;50.540;12.504;2024-01-30T05:13:40;6.60;;;3.63;;
37715;SDS011;23562;50.540;12.504;2024-01-30T05:16:05;6.05;;;3.15;;
37715;SDS011;23562;50.540;12.504;2024-01-30T05:18:30;5.40;;;2.88;;
37715;SDS011;23562;50.540;12.504;2024-01-30T05:20:55;4.80;;;2.53;;
37715;SDS011;23562;50.540;12.504;2024-01-30T05:23:20;4.13;;;2.05;;
37715;SDS011;23562;50.540;12.504;2024-01-30T05:25:45;9.10;;;4.03;;
37715;SDS011;23562;50.540;12.504;2024-01-30T05:28:11;7.22;;;3.58;;
37715;SDS011;23562;50.540;12.504;2024-01-30T05:30:36;14.25;;;7.03;;
37715;SDS011;23562;50.540;12.504;2024-01-30T05:33:01;7.65;;;3.15;;
37715;SDS011;23562;50.540;12.504;2024-01-30T05:35:26;4.22;;;2.58;;
37715;SDS011;23562;50.540;12.504;2024-01-30T05:37:51;3.83;;;2.15;;
37715;SDS011;23562;50.540;12.504;2024-01-30T05:40:16;5.45;;;2.50;;
37715;SDS011;23562;50.540;12.504;2024-01-30T05:42:41;6.45;;;2.65;;
37715;SDS011;23562;50.540;12.504;2024-01-30T05:45:07;5.03;;;1.93;;
37715;SDS011;23562;50.540;12.504;2024-01-30T05:47:33;6.43;;;2.70;;
37715;SDS011;23562;50.540;12.504;2024-01-30T05:49:58;6.97;;;3.27;;
37715;SDS011;23562;50.540;12.504;2024-01-30T05:52:23;3.25;;;2.38;;
37715;SDS011;23562;50.540;12.504;2024-01-30T05:54:48;3.88;;;2.30;;
37715;SDS011;23562;50.540;12.504;2024-01-30T05:57:13;4.40;;;2.60;;
37715;SDS011;23562;50.540;12.504;2024-01-30T05:59:38;4.20;;;2.40;;
37715;SDS011;23562;50.540;12.504;2024-01-30T06:02:03;4.10;;;2.30;;
37715;SDS011;23562;50.540;12.504;2024-01-30T06:04:29;6.17;;;2.50;;
37715;SDS011;23562;50.540;12.504;2024-01-30T06:06:54;3.70;;;2.05;;
37715;SDS011;23562;50.540;12.504;2024-01-30T06:09:19;3.33;;;2.20;;
37715;SDS011;23562;50.540;12.504;2024-01-30T06:11:44;3.92;;;2.20;;
37715;SDS011;23562;50.540;12.504;2024-01-30T06:14:09;4.10;;;2.15;;
37715;SDS011;23562;50.540;12.504;2024-01-30T06:16:34;4.03;;;2.15;;
37715;SDS011;23562;50.540;12.504;2024-01-30T06:19:00;5.05;;;2.60;;
37715;SDS011;23562;50.540;12.504;2024-01-30T06:21:25;4.68;;;2.40;;
37715;SDS011;23562;50.540;12.504;2024-01-30T06:23:50;5.37;;;2.70;;
37715;SDS011;23562;50.540;12.504;2024-01-30T06:26:15;7.40;;;2.93;;
37715;SDS011;23562;50.540;12.504;2024-01-30T06:28:40;5.38;;;2.70;;
37715;SDS011;23562;50.540;12.504;2024-01-30T06:31:05;3.75;;;2.10;;
37715;SDS011;23562;50.540;12.504;2024-01-30T06:33:30;10.37;;;6.53;;
37715;SDS011;23562;50.540;12.504;2024-01-30T06:35:56;16.13;;;10.63;;
37715;SDS011;23562;50.540;12.504;2024-01-30T06:38:21;9.47;;;6.30;;
37715;SDS011;23562;50.540;12.504;2024-01-30T06:40:46;26.05;;;18.52;;
37715;SDS011;23562;50.540;12.504;2024-01-30T06:43:11;9.27;;;7.10;;
37715;SDS011;23562;50.540;12.504;2024-01-30T06:45:36;6.87;;;3.90;;
37715;SDS011;23562;50.540;12.504;2024-01-30T06:48:02;5.05;;;2.60;;
37715;SDS011;23562;50.540;12.504;2024-01-30T06:50:27;4.40;;;2.47;;
37715;SDS011;23562;50.540;12.504;2024-01-30T06:52:52;4.88;;;2.80;;
37715;SDS011;23562;50.540;12.504;2024-01-30T06:55:18;5.68;;;2.65;;
37715;SDS011;23562;50.540;12.504;2024-01-30T06:57:43;4.43;;;2.38;;
37715;SDS011;23562;50.540;12.504;2024-01-30T07:00:08;3.67;;;2.20;;
37715;SDS011;23562;50.540;12.504;2024-01-30T07:02:33;2.65;;;1.92;;
37715;SDS011;23562;50.540;12.504;2024-01-30T07:04:58;5.43;;;2.47;;
37715;SDS011;23562;50.540;12.504;2024-01-30T07:07:23;7.03;;;2.40;;
37715;SDS011;23562;50.540;12.504;2024-01-30T07:09:49;4.90;;;2.77;;
37715;SDS011;23562;50.540;12.504;2024-01-30T07:12:17;4.63;;;3.08;;
37715;SDS011;23562;50.540;12.504;2024-01-30T07:14:42;9.32;;;3.92;;
37715;SDS011;23562;50.540;12.504;2024-01-30T07:17:07;7.90;;;3.25;;
37715;SDS011;23562;50.540;12.504;2024-01-30T07:19:32;4.97;;;3.30;;
37715;SDS011;23562;50.540;12.504;2024-01-30T07:21:58;7.22;;;3.60;;
37715;SDS011;23562;50.540;12.504;2024-01-30T07:24:23;6.07;;;4.07;;
37715;SDS011;23562;50.540;12.504;2024-01-30T07:26:48;6.43;;;3.70;;
37715;SDS011;23562;50.540;12.504;2024-01-30T07:29:13;7.00;;;3.70;;
37715;SDS011;23562;50.540;12.504;2024-01-30T07:31:38;6.30;;;3.40;;
37715;SDS011;23562;50.540;12.504;2024-01-30T07:34:03;3.53;;;2.33;;
37715;SDS011;23562;50.540;12.504;2024-01-30T07:36:28;5.53;;;3.10;;
37715;SDS011;23562;50.540;12.504;2024-01-30T07:38:53;7.00;;;3.25;;
37715;SDS011;23562;50.540;12.504;2024-01-30T07:41:19;6.43;;;3.10;;
37715;SDS011;23562;50.540;12.504;2024-01-30T07:43:44;4.78;;;2.78;;
37715;SDS011;23562;50.540;12.504;2024-01-30T07:46:10;5.13;;;3.13;;
37715;SDS011;23562;50.540;12.504;2024-01-30T07:48:35;7.60;;;3.08;;
37715;SDS011;23562;50.540;12.504;2024-01-30T07:51:00;6.57;;;3.20;;
37715;SDS011;23562;50.540;12.504;2024-01-30T07:53:25;5.47;;;3.10;;
37715;SDS011;23562;50.540;12.504;2024-01-30T07:55:50;6.05;;;3.38;;
37715;SDS011;23562;50.540;12.504;2024-01-30T07:58:15;8.20;;;4.47;;
37715;SDS011;23562;50.540;12.504;2024-01-30T08:00:40;6.10;;;3.22;;
37715;SDS011;23562;50.540;12.504;2024-01-30T08:03:06;6.25;;;3.67;;
37715;SDS011;23562;50.540;12.504;2024-01-30T08:05:31;6.22;;;3.53;;
37715;SDS011;23562;50.540;12.504;2024-01-30T08:07:56;6.05;;;3.50;;
37715;SDS011;23562;50.540;12.504;2024-01-30T08:10:21;7.13;;;3.83;;
37715;SDS011;23562;50.540;12.504;2024-01-30T08:12:46;7.13;;;4.27;;
37715;SDS011;23562;50.540;12.504;2024-01-30T08:15:12;9.88;;;4.47;;
37715;SDS011;23562;50.540;12.504;2024-01-30T08:17:38;8.68;;;4.47;;
37715;SDS011;23562;50.540;12.504;2024-01-30T08:20:03;9.80;;;4.63;;
37715;SDS011;23562;50.540;12.504;2024-01-30T08:22:29;10.23;;;4.35;;
37715;SDS011;23562;50.540;12.504;2024-01-30T08:24:54;9.83;;;5.00;;
37715;SDS011;23562;50.540;12.504;2024-01-30T08:27:19;10.65;;;4.97;;
37715;SDS011;23562;50.540;12.504;2024-01-30T08:29:44;7.90;;;4.03;;
37715;SDS011;23562;50.540;12.504;2024-01-30T08:32:10;8.03;;;3.97;;
37715;SDS011;23562;50.540;12.504;2024-01-30T08:34:35;7.72;;;3.80;;
37715;SDS011;23562;50.540;12.504;2024-01-30T08:37:00;7.78;;;3.83;;
37715;SDS011;23562;50.540;12.504;2024-01-30T08:39:25;8.02;;;3.80;;
37715;SDS011;23562;50.540;12.504;2024-01-30T08:41:50;7.67;;;4.37;;
37715;SDS011;23562;50.540;12.504;2024-01-30T08:44:16;8.10;;;4.40;;
37715;SDS011;23562;50.540;12.504;2024-01-30T08:46:41;8.07;;;4.43;;
37715;SDS011;23562;50.540;12.504;2024-01-30T08:49:07;6.90;;;4.18;;
37715;SDS011;23562;50.540;12.504;2024-01-30T08:51:33;6.72;;;3.97;;
37715;SDS011;23562;50.540;12.504;2024-01-30T08:53:58;8.05;;;5.05;;
37715;SDS011;23562;50.540;12.504;2024-01-30T08:56:24;16.60;;;8.80;;
37715;SDS011;23562;50.540;12.504;2024-01-30T08:58:49;10.93;;;6.80;;
37715;SDS011;23562;50.540;12.504;2024-01-30T09:01:14;9.68;;;5.35;;
37715;SDS011;23562;50.540;12.504;2024-01-30T09:03:39;8.60;;;4.90;;
37715;SDS011;23562;50.540;12.504;2024-01-30T09:06:09;10.57;;;5.22;;
37715;SDS011;23562;50.540;12.504;2024-01-30T09:08:34;8.85;;;5.10;;
37715;SDS011;23562;50.540;12.504;2024-01-30T09:10:59;12.53;;;5.53;;
37715;SDS011;23562;50.540;12.504;2024-01-30T09:13:25;12.07;;;5.90;;
37715;SDS011;23562;50.540;12.504;2024-01-30T09:15:50;8.70;;;4.88;;
37715;SDS011;23562;50.540;12.504;2024-01-30T09:18:15;8.77;;;5.10;;
37715;SDS011;23562;50.540;12.504;2024-01-30T09:20:40;8.83;;;5.20;;
37715;SDS011;23562;50.540;12.504;2024-01-30T09:23:05;8.10;;;4.90;;
37715;SDS011;23562;50.540;12.504;2024-01-30T09:25:30;9.52;;;5.00;;
37715;SDS011;23562;50.540;12.504;2024-01-30T09:27:55;9.20;;;5.83;;
37715;SDS011;23562;50.540;12.504;2024-01-30T09:30:21;8.45;;;5.13;;
37715;SDS011;23562;50.540;12.504;2024-01-30T09:32:46;11.65;;;7.72;;
37715;SDS011;23562;50.540;12.504;2024-01-30T09:35:11;16.07;;;8.70;;
37715;SDS011;23562;50.540;12.504;2024-01-30T09:37:36;10.77;;;6.83;;
37715;SDS011;23562;50.540;12.504;2024-01-30T09:40:01;14.20;;;7.13;;
37715;SDS011;23562;50.540;12.504;2024-01-30T09:42:33;11.32;;;5.07;;
37715;SDS011;23562;50.540;12.504;2024-01-30T09:45:02;8.50;;;5.40;;
37715;SDS011;23562;50.540;12.504;2024-01-30T09:47:30;9.13;;;5.18;;
37715;SDS011;23562;50.540;12.504;2024-01-30T09:49:56;10.57;;;6.45;;
37715;SDS011;23562;50.540;12.504;2024-01-30T09:52:21;12.23;;;7.40;;
37715;SDS011;23562;50.540;12.504;2024-01-30T09:54:46;12.73;;;6.35;;
37715;SDS011;23562;50.540;12.504;2024-01-30T09:57:12;12.82;;;5.32;;
37715;SDS011;23562;50.540;12.504;2024-01-30T09:59:38;11.17;;;5.87;;
37715;SDS011;23562;50.540;12.504;2024-01-30T10:02:03;14.15;;;5.72;;
37715;SDS011;23562;50.540;12.504;2024-01-30T10:04:29;9.15;;;5.32;;
37715;SDS011;23562;50.540;12.504;2024-01-30T10:06:54;9.98;;;5.78;;
37715;SDS011;23562;50.540;12.504;2024-01-30T10:09:19;11.07;;;6.10;;
37715;SDS011;23562;50.540;12.504;2024-01-30T10:11:45;8.77;;;5.37;;
37715;SDS011;23562;50.540;12.504;2024-01-30T10:14:10;11.73;;;5.43;;
37715;SDS011;23562;50.540;12.504;2024-01-30T10:16:35;11.68;;;6.45;;
37715;SDS011;23562;50.540;12.504;2024-01-30T10:19:00;9.93;;;5.63;;
37715;SDS011;23562;50.540;12.504;2024-01-30T10:21:25;10.18;;;5.53;;
37715;SDS011;23562;50.540;12.504;2024-01-30T10:23:51;13.95;;;5.72;;
37715;SDS011;23562;50.540;12.504;2024-01-30T10:26:16;9.65;;;5.65;;
37715;SDS011;23562;50.540;12.504;2024-01-30T10:28:42;11.05;;;5.60;;
37715;SDS011;23562;50.540;12.504;2024-01-30T10:31:07;9.95;;;5.55;;
37715;SDS011;23562;50.540;12.504;2024-01-30T10:33:32;9.75;;;5.75;;
37715;SDS011;23562;50.540;12.504;2024-01-30T10:36:00;8.50;;;5.07;;
37715;SDS011;23562;50.540;12.504;2024-01-30T10:38:25;12.02;;;5.68;;
37715;SDS011;23562;50.540;12.504;2024-01-30T10:40:53;8.93;;;4.95;;
37715;SDS011;23562;50.540;12.504;2024-01-30T10:43:20;8.40;;;5.20;;
37715;SDS011;23562;50.540;12.504;2024-01-30T10:45:46;9.18;;;5.18;;
37715;SDS011;23562;50.540;12.504;2024-01-30T10:48:13;11.15;;;5.30;;
37715;SDS011;23562;50.540;12.504;2024-01-30T10:50:39;8.23;;;5.60;;
37715;SDS011;23562;50.540;12.504;2024-01-30T10:53:05;11.23;;;5.60;;
37715;SDS011;23562;50.540;12.504;2024-01-30T10:55:31;8.77;;;5.18;;
37715;SDS011;23562;50.540;12.504;2024-01-30T10:57:56;8.35;;;5.07;;
37715;SDS011;23562;50.540;12.504;2024-01-30T11:00:21;8.23;;;4.72;;
37715;SDS011;23562;50.540;12.504;2024-01-30T11:02:49;8.82;;;5.00;;
37715;SDS011;23562;50.540;12.504;2024-01-30T11:05:14;11.68;;;5.00;;
37715;SDS011;23562;50.540;12.504;2024-01-30T11:07:40;9.50;;;4.10;;
37715;SDS011;23562;50.540;12.504;2024-01-30T11:10:06;9.80;;;4.50;;
37715;SDS011;23562;50.540;12.504;2024-01-30T11:12:37;8.85;;;4.68;;
37715;SDS011;23562;50.540;12.504;2024-01-30T11:20:05;17.35;;;12.18;;
37715;SDS011;23562;50.540;12.504;2024-01-30T11:22:34;17.13;;;11.77;;
37715;SDS011;23562;50.540;12.504;2024-01-30T11:24:59;20.35;;;13.57;;
37715;SDS011;23562;50.540;12.504;2024-01-30T11:27:25;10.07;;;5.35;;
37715;SDS011;23562;50.540;12.504;2024-01-30T11:29:51;7.95;;;4.50;;
37715;SDS011;23562;50.540;12.504;2024-01-30T11:32:21;7.28;;;4.80;;
37715;SDS011;23562;50.540;12.504;2024-01-30T11:34:47;9.60;;;5.20;;
37715;SDS011;23562;50.540;12.504;2024-01-30T11:37:14;9.30;;;5.63;;
37715;SDS011;23562;50.540;12.504;2024-01-30T11:39:40;8.88;;;5.93;;
37715;SDS011;23562;50.540;12.504;2024-01-30T11:42:07;8.73;;;4.38;;
37715;SDS011;23562;50.540;12.504;2024-01-30T11:44:33;7.63;;;4.47;;
37715;SDS011;23562;50.540;12.504;2024-01-30T11:46:58;9.55;;;4.55;;
37715;SDS011;23562;50.540;12.504;2024-01-30T11:49:24;8.50;;;4.13;;
37715;SDS011;23562;50.540;12.504;2024-01-30T11:51:49;7.87;;;4.50;;
37715;SDS011;23562;50.540;12.504;2024-01-30T11:54:14;10.00;;;4.57;;
37715;SDS011;23562;50.540;12.504;2024-01-30T11:56:40;11.02;;;4.20;;
37715;SDS011;23562;50.540;12.504;2024-01-30T11:59:05;7.53;;;4.05;;
37715;SDS011;23562;50.540;12.504;2024-01-30T12:01:31;8.75;;;4.85;;
37715;SDS011;23562;50.540;12.504;2024-01-30T12:03:56;7.07;;;4.25;;
37715;SDS011;23562;50.540;12.504;2024-01-30T12:06:22;7.82;;;4.28;;
37715;SDS011;23562;50.540;12.504;2024-01-30T12:08:59;6.70;;;4.22;;
37715;SDS011;23562;50.540;12.504;2024-01-30T12:11:25;10.57;;;4.20;;
37715;SDS011;23562;50.540;12.504;2024-01-30T12:13:53;8.90;;;4.78;;
37715;SDS011;23562;50.540;12.504;2024-01-30T12:16:19;9.63;;;4.88;;
37715;SDS011;23562;50.540;12.504;2024-01-30T12:18:44;9.73;;;4.72;;
37715;SDS011;23562;50.540;12.504;2024-01-30T12:21:09;9.60;;;5.53;;
37715;SDS011;23562;50.540;12.504;2024-01-30T12:23:35;8.82;;;4.93;;
37715;SDS011;23562;50.540;12.504;2024-01-30T12:26:00;10.77;;;5.43;;
37715;SDS011;23562;50.540;12.504;2024-01-30T12:28:26;10.10;;;5.50;;
37715;SDS011;23562;50.540;12.504;2024-01-30T12:30:55;13.17;;;5.23;;
37715;SDS011;23562;50.540;12.504;2024-01-30T12:33:21;8.60;;;4.75;;
37715;SDS011;23562;50.540;12.504;2024-01-30T12:35:47;8.90;;;4.68;;
37715;SDS011;23562;50.540;12.504;2024-01-30T12:38:15;10.32;;;5.00;;
37715;SDS011;23562;50.540;12.504;2024-01-30T12:40:40;7.90;;;4.53;;
37715;SDS011;23562;50.540;12.504;2024-01-30T12:43:05;7.67;;;5.20;;
37715;SDS011;23562;50.540;12.504;2024-01-30T12:45:31;9.93;;;4.70;;
37715;SDS011;23562;50.540;12.504;2024-01-30T12:47:56;12.02;;;5.15;;
37715;SDS011;23562;50.540;12.504;2024-01-30T12:50:21;7.93;;;4.83;;
37715;SDS011;23562;50.540;12.504;2024-01-30T12:52:47;10.07;;;5.05;;
37715;SDS011;23562;50.540;12.504;2024-01-30T12:55:12;7.70;;;4.80;;
37715;SDS011;23562;50.540;12.504;2024-01-30T12:57:37;9.65;;;4.70;;
37715;SDS011;23562;50.540;12.504;2024-01-30T13:00:04;8.55;;;4.75;;
37715;SDS011;23562;50.540;12.504;2024-01-30T13:02:29;9.57;;;5.65;;
37715;SDS011;23562;50.540;12.504;2024-01-30T13:04:59;9.43;;;5.15;;
37715;SDS011;23562;50.540;12.504;2024-01-30T13:07:25;8.80;;;5.20;;
37715;SDS011;23562;50.540;12.504;2024-01-30T13:09:50;12.00;;;5.25;;
37715;SDS011;23562;50.540;12.504;2024-01-30T13:12:15;10.68;;;4.80;;
37715;SDS011;23562;50.540;12.504;2024-01-30T13:14:40;11.15;;;5.05;;
37715;SDS011;23562;50.540;12.504;2024-01-30T13:17:05;10.65;;;5.38;;
37715;SDS011;23562;50.540;12.504;2024-01-30T13:19:30;9.00;;;4.82;;
37715;SDS011;23562;50.540;12.504;2024-01-30T13:21:55;9.95;;;5.60;;
37715;SDS011;23562;50.540;12.504;2024-01-30T13:24:20;8.70;;;4.78;;
37715;SDS011;23562;50.540;12.504;2024-01-30T13:26:46;8.32;;;4.53;;
37715;SDS011;23562;50.540;12.504;2024-01-30T13:29:11;7.40;;;4.72;;
37715;SDS011;23562;50.540;12.504;2024-01-30T13:31:36;11.02;;;6.15;;
37715;SDS011;23562;50.540;12.504;2024-01-30T13:34:01;14.43;;;8.45;;
37715;SDS011;23562;50.540;12.504;2024-01-30T13:36:27;11.43;;;6.25;;
37715;SDS011;23562;50.540;12.504;2024-01-30T13:38:52;11.50;;;5.90;;
37715;SDS011;23562;50.540;12.504;2024-01-30T13:41:17;11.27;;;5.77;;
37715;SDS011;23562;50.540;12.504;2024-01-30T13:43:43;9.87;;;6.80;;
37715;SDS011;23562;50.540;12.504;2024-01-30T13:46:08;14.48;;;7.00;;
37715;SDS011;23562;50.540;12.504;2024-01-30T13:48:33;19.85;;;9.55;;
37715;SDS011;23562;50.540;12.504;2024-01-30T13:50:58;18.60;;;9.02;;
37715;SDS011;23562;50.540;12.504;2024-01-30T13:53:24;17.98;;;8.00;;
37715;SDS011;23562;50.540;12.504;2024-01-30T13:55:49;13.75;;;7.18;;
37715;SDS011;23562;50.540;12.504;2024-01-30T13:58:15;16.97;;;8.13;;
37715;SDS011;23562;50.540;12.504;2024-01-30T14:00:40;21.63;;;13.68;;
37715;SDS011;23562;50.540;12.504;2024-01-30T14:03:05;12.70;;;5.85;;
37715;SDS011;23562;50.540;12.504;2024-01-30T14:05:30;10.57;;;6.68;;
37715;SDS011;23562;50.540;12.504;2024-01-30T14:07:56;12.07;;;6.10;;
37715;SDS011;23562;50.540;12.504;2024-01-30T14:10:21;7.47;;;5.05;;
37715;SDS011;23562;50.540;12.504;2024-01-30T14:12:47;13.33;;;6.63;;
37715;SDS011;23562;50.540;12.504;2024-01-30T14:15:15;18.70;;;8.40;;
37715;SDS011;23562;50.540;12.504;2024-01-30T14:17:42;13.57;;;7.18;;
37715;SDS011;23562;50.540;12.504;2024-01-30T14:20:08;9.48;;;5.93;;
37715;SDS011;23562;50.540;12.504;2024-01-30T14:22:33;10.63;;;5.27;;
37715;SDS011;23562;50.540;12.504;2024-01-30T14:24:58;10.52;;;4.78;;